• Join FlightAware (Why Join?)
  • Login
  • US Flag 
11:14AM EDT


 

Airport Tracker/Info


-or-


 

Live Flight TrackerFlight Track Log ✈ THY2022 ✈ 25-Jul-2013 ✈ LTBA / IST - LTAU / ASR

Flight Track Log - Related Links

Times and Time Zones

All times are in EDT time to prevent confusion due to time zone crossing. See the THY2022 flight status page for this flight to view local times or setup timezone preferences in your user account.

Time Position Orientation Groundspeed Altitude Reporting Facility
EDT Latitude Longitude Course Direction KTS MPH feet Rate Location/Type
05:25PM 40.4399 30.5994 111° Southeast  Level Estimated
05:26PM 40.3975 30.7350 112° Southeast  Level Estimated
05:27PM 40.3549 30.8704 112° Southeast  Level Estimated
05:28PM 40.3121 31.0057 112° Southeast  Level Estimated
05:29PM 40.2692 31.1407 113° Southeast  Level Estimated
05:30PM 40.2262 31.2757 113° Southeast  Level Estimated
05:31PM 40.1830 31.4104 113° Southeast  Level Estimated
05:32PM 40.1396 31.5450 113° Southeast  Level Estimated
05:33PM 40.0961 31.6794 113° Southeast  Level Estimated
05:34PM 40.0524 31.8136 113° Southeast  Level Estimated
05:35PM 40.0085 31.9476 113° Southeast  Level Estimated
05:36PM 39.9646 32.0815 113° Southeast  Level Estimated
05:37PM 39.9204 32.2152 113° Southeast  Level Estimated
05:38PM 39.8761 32.3488 113° Southeast  Level Estimated
05:39PM 39.8317 32.4821 113° Southeast  Level Estimated
05:40PM 39.7871 32.6153 114° Southeast  Level Estimated
05:41PM 39.7423 32.7483 114° Southeast  Level Estimated
05:42PM 39.6974 32.8812 114° Southeast  Level Estimated
05:43PM 39.6523 33.0138 114° Southeast  Level Estimated
05:44PM 39.6071 33.1463 114° Southeast  Level Estimated
05:45PM 39.5618 33.2786 114° Southeast  Level Estimated
05:46PM 39.5163 33.4108 114° Southeast  Level Estimated
05:47PM 39.4706 33.5428 114° Southeast  Level Estimated
05:48PM 39.4248 33.6746 114° Southeast  Level Estimated
05:49PM 39.3788 33.8062 114° Southeast  Level Estimated
05:50PM 39.3327 33.9377 114° Southeast  Level Estimated
05:51PM 39.2865 34.0690 114° Southeast  Level Estimated
05:52PM 39.2401 34.2001 115° Southeast  Level Estimated
05:53PM 39.1935 34.3310 115° Southeast  Level Estimated
05:54PM 39.1468 34.4618 115° Southeast  Level Estimated
05:55PM 39.1000 34.5924 115° Southeast  Level Estimated
05:56PM 39.0530 34.7228 115° Southeast  Level Estimated
05:57PM 39.0059 34.8530 115° Southeast  Level Estimated
05:58PM 38.9586 34.9831 115° Southeast  Level Estimated
05:59PM 38.9112 35.1130 115° Southeast  Level Estimated
06:00PM 38.8636 35.2427 115° Southeast  Level Estimated
06:01PM 38.8159 35.3722 115° Southeast  Level Estimated
06:02PM 38.7704 35.4954 115° Southeast  Level Estimated
06:03PM 38.7704 35.4954 201° Southwest  Level Estimated
06:04PM 38.7704 35.4954 201° Southwest  Level Estimated
06:05PM 38.7704 35.4954 201° Southwest  Level Estimated
06:06PM 38.7704 35.4954 201° Southwest  Level Estimated
06:07PM 38.7704 35.4954 201° Southwest  Level Estimated
06:08PM 38.7704 35.4954 201° Southwest  Level Estimated
06:09PM 38.7704 35.4954 201° Southwest  Level Estimated
06:10PM 38.7704 35.4954 201° Southwest  Level Estimated